Terminal Aerodrome Forecast
Issued by NWS

Home | Current Version | Previous Version | Graphics & Text | Print | Product List | Glossary On
Versions: 1 2 3 4 5 6 7 8 9 10 11 12 13 14 15 16
000
FTUS43 KMPX 300918 AAA
TAFRNH
TAF AMD
KRNH 300918Z 3009/3106 18005KT 6SM BR BKN006
      TEMPO 3013/3016 SCT009
     FM301600 20010KT P6SM SKC=

USA.gov is the U.S. government's official web portal to all federal, state and local government web resources and services.